createdAt,value
2023-08-24T00:01:59.726Z,83.90
2023-08-24T00:04:26.270Z,83.88
2023-08-24T00:06:53.046Z,84.00
2023-08-24T00:09:20.340Z,84.21
2023-08-24T00:11:47.027Z,84.40
2023-08-24T00:14:13.680Z,84.26
2023-08-24T00:16:40.379Z,84.51
2023-08-24T00:19:08.115Z,84.63
2023-08-24T00:21:34.747Z,84.53
2023-08-24T00:24:01.343Z,84.56
2023-08-24T00:26:27.882Z,84.44
2023-08-24T00:28:54.908Z,84.47
2023-08-24T00:31:21.501Z,84.54
2023-08-24T00:33:48.111Z,84.42
2023-08-24T00:36:14.747Z,84.31
2023-08-24T00:38:41.378Z,84.76
2023-08-24T00:41:08.131Z,84.81
2023-08-24T00:43:37.251Z,84.66
2023-08-24T00:46:05.189Z,84.92
2023-08-24T00:48:32.314Z,84.61
2023-08-24T00:51:01.024Z,84.79
2023-08-24T00:53:28.534Z,84.92
2023-08-24T00:55:55.784Z,85.14
2023-08-24T00:58:22.815Z,84.90
2023-08-24T01:00:50.584Z,84.72
2023-08-24T01:03:17.333Z,84.86
2023-08-24T01:05:45.067Z,84.92
2023-08-24T01:08:11.920Z,85.03
2023-08-24T01:10:52.513Z,84.71
2023-08-24T01:13:27.359Z,85.18
2023-08-24T01:15:59.370Z,85.52
2023-08-24T01:18:28.231Z,85.80
2023-08-24T01:20:56.105Z,85.62
2023-08-24T01:23:22.844Z,86.07
2023-08-24T01:26:05.013Z,85.83
2023-08-24T01:28:32.387Z,85.93
2023-08-24T01:30:59.136Z,86.27
2023-08-24T01:33:26.246Z,85.93
2023-08-24T01:35:52.915Z,86.19
2023-08-24T01:38:19.692Z,86.25
2023-08-24T01:41:06.976Z,85.80
2023-08-24T01:43:43.059Z,85.94
2023-08-24T01:46:11.296Z,86.03
2023-08-24T01:48:38.505Z,85.96
2023-08-24T01:51:05.693Z,85.91
2023-08-24T01:53:32.918Z,86.34
2023-08-24T01:55:59.583Z,86.45
2023-08-24T01:58:26.280Z,86.52
2023-08-24T02:00:53.244Z,86.39
2023-08-24T02:03:19.906Z,86.31
2023-08-24T02:05:46.532Z,86.61
2023-08-24T02:08:13.186Z,86.65
2023-08-24T02:10:39.766Z,86.47
2023-08-24T02:13:06.287Z,86.48
2023-08-24T02:15:32.952Z,86.21
2023-08-24T02:17:59.612Z,86.43
2023-08-24T02:20:26.247Z,86.48
2023-08-24T02:22:52.945Z,86.42
2023-08-24T02:25:19.626Z,86.68
2023-08-24T02:27:46.194Z,86.86
2023-08-24T02:30:13.904Z,86.65
2023-08-24T02:32:40.590Z,86.40
2023-08-24T02:35:07.733Z,86.82
2023-08-24T02:37:34.659Z,86.71
2023-08-24T02:40:01.353Z,86.71
2023-08-24T02:42:28.335Z,86.71
2023-08-24T02:44:54.981Z,86.87
2023-08-24T02:47:21.589Z,86.98
2023-08-24T02:49:48.191Z,87.11
2023-08-24T02:52:14.793Z,87.10
2023-08-24T02:54:41.401Z,87.06
2023-08-24T02:57:08.011Z,87.01
2023-08-24T02:59:34.590Z,86.87
2023-08-24T03:02:01.134Z,87.06
2023-08-24T03:04:28.596Z,87.24
2023-08-24T03:06:55.200Z,87.32
2023-08-24T03:09:21.853Z,87.34
2023-08-24T03:11:48.492Z,87.53
2023-08-24T03:14:15.089Z,87.59
2023-08-24T03:16:41.667Z,87.58
2023-08-24T03:19:08.624Z,87.53
2023-08-24T03:21:35.271Z,87.68
2023-08-24T03:24:01.912Z,87.33
2023-08-24T03:26:28.517Z,87.45
2023-08-24T03:28:55.070Z,87.33
2023-08-24T03:31:21.806Z,87.33
2023-08-24T03:33:48.553Z,87.37
2023-08-24T03:36:15.149Z,87.59
2023-08-24T03:38:41.764Z,87.50
2023-08-24T03:41:08.696Z,87.55
2023-08-24T03:43:36.572Z,87.63
2023-08-24T03:46:05.180Z,87.69
2023-08-24T03:48:32.089Z,87.86
2023-08-24T03:50:59.219Z,87.95
2023-08-24T03:53:26.109Z,87.89
2023-08-24T03:55:53.284Z,87.90
2023-08-24T03:58:20.159Z,87.83
2023-08-24T04:00:47.276Z,87.95
2023-08-24T04:03:14.338Z,87.92
2023-08-24T04:05:41.119Z,87.93
2023-08-24T04:08:08.591Z,87.92
2023-08-24T04:10:35.292Z,87.99
2023-08-24T04:13:02.293Z,88.03
2023-08-24T04:15:28.978Z,88.29
2023-08-24T04:17:55.635Z,88.27
2023-08-24T04:20:22.423Z,88.23
2023-08-24T04:22:49.014Z,88.29
2023-08-24T04:25:15.612Z,88.40
2023-08-24T04:27:42.717Z,88.11
2023-08-24T04:30:13.523Z,88.50
2023-08-24T04:32:40.333Z,88.34
2023-08-24T04:35:07.367Z,88.28
2023-08-24T04:37:34.015Z,88.40
2023-08-24T04:40:00.628Z,88.53
2023-08-24T04:42:27.224Z,88.46
2023-08-24T04:44:53.886Z,88.40
2023-08-24T04:47:20.427Z,88.09
2023-08-24T04:49:47.017Z,88.18
2023-08-24T04:52:14.081Z,88.27
2023-08-24T04:54:40.806Z,87.93
2023-08-24T04:57:08.001Z,88.27
2023-08-24T04:59:34.649Z,87.83
2023-08-24T05:02:01.308Z,87.84
2023-08-24T05:04:27.978Z,87.53
2023-08-24T05:06:54.574Z,87.15
2023-08-24T05:09:21.139Z,86.85
2023-08-24T05:11:47.825Z,86.93
2023-08-24T05:14:15.296Z,86.87
2023-08-24T05:16:42.342Z,86.57
2023-08-24T05:19:08.996Z,86.24
2023-08-24T05:21:35.582Z,85.95
2023-08-24T05:24:02.237Z,85.82
2023-08-24T05:26:28.831Z,85.61
2023-08-24T05:28:55.785Z,85.60
2023-08-24T05:31:22.539Z,85.61
2023-08-24T05:33:49.191Z,84.84
2023-08-24T05:36:15.784Z,84.39
2023-08-24T05:41:17.884Z,83.81
2023-08-24T05:43:44.491Z,83.73
2023-08-24T05:46:11.151Z,83.77
2023-08-24T05:48:37.765Z,83.78
2023-08-24T05:51:04.389Z,83.23
2023-08-24T05:53:31.008Z,82.79
2023-08-24T05:56:00.756Z,82.57
2023-08-24T05:58:27.292Z,82.50
2023-08-24T06:00:58.235Z,82.65
2023-08-24T06:03:25.549Z,82.54
2023-08-24T06:05:52.235Z,82.77
2023-08-24T06:08:18.891Z,82.56
2023-08-24T06:10:45.481Z,82.88
2023-08-24T06:13:12.102Z,82.60
2023-08-24T06:15:38.754Z,82.01
2023-08-24T06:18:05.498Z,81.75
2023-08-24T06:20:32.153Z,81.29
2023-08-24T06:22:58.859Z,80.69
2023-08-24T06:25:25.557Z,80.29
2023-08-24T06:27:52.482Z,79.85
2023-08-24T06:30:19.718Z,79.24
2023-08-24T06:32:46.466Z,78.54
2023-08-24T06:35:15.808Z,78.02
2023-08-24T06:37:43.428Z,77.36
2023-08-24T06:40:10.234Z,76.73
2023-08-24T06:42:36.806Z,76.15
2023-08-24T06:45:03.558Z,75.24
2023-08-24T06:47:30.268Z,74.63
2023-08-24T06:49:56.913Z,74.15
2023-08-24T06:52:23.538Z,73.58
2023-08-24T06:54:54.837Z,72.71
2023-08-24T06:57:21.629Z,72.05
2023-08-24T06:59:48.743Z,71.57
2023-08-24T07:02:15.383Z,71.02
2023-08-24T07:04:41.973Z,70.61
2023-08-24T07:07:09.228Z,70.69
2023-08-24T07:09:36.695Z,70.59
2023-08-24T07:12:08.389Z,70.09
2023-08-24T07:14:34.991Z,68.59
2023-08-24T07:17:01.589Z,68.08
2023-08-24T07:19:28.346Z,67.23
2023-08-24T07:21:55.199Z,66.93
2023-08-24T07:24:31.019Z,66.36
2023-08-24T07:27:01.798Z,66.33
2023-08-24T07:29:28.448Z,66.10
2023-08-24T07:31:55.204Z,66.27
2023-08-24T07:34:23.436Z,66.45
2023-08-24T07:36:51.454Z,65.95
2023-08-24T07:39:18.074Z,65.17
2023-08-24T07:41:45.515Z,65.00
2023-08-24T07:44:12.089Z,64.51
2023-08-24T07:46:39.894Z,64.26
2023-08-24T07:49:06.627Z,64.43
2023-08-24T07:51:36.778Z,63.59
2023-08-24T07:54:05.581Z,63.08
2023-08-24T07:56:32.222Z,62.82
2023-08-24T07:58:58.807Z,62.97
2023-08-24T08:01:25.608Z,63.09
2023-08-24T08:03:52.283Z,62.47
2023-08-24T08:06:19.053Z,62.61
2023-08-24T08:08:47.694Z,62.36
2023-08-24T08:11:14.274Z,61.85
2023-08-24T08:13:43.373Z,61.31
2023-08-24T08:16:10.579Z,60.93
2023-08-24T08:18:48.432Z,60.51
2023-08-24T08:21:22.781Z,60.04
2023-08-24T08:23:49.913Z,59.60
2023-08-24T08:26:17.573Z,59.32
2023-08-24T08:28:45.697Z,59.30
2023-08-24T08:31:12.798Z,58.76
2023-08-24T08:33:39.550Z,58.67
2023-08-24T08:36:06.371Z,58.73
2023-08-24T08:38:32.966Z,58.35
2023-08-24T08:41:04.078Z,57.60
2023-08-24T08:43:31.580Z,57.91
2023-08-24T08:45:59.165Z,57.25
2023-08-24T08:48:26.819Z,57.95
2023-08-24T08:51:00.837Z,57.74
2023-08-24T08:53:27.558Z,57.71
2023-08-24T08:55:55.953Z,57.22
2023-08-24T08:58:23.352Z,56.46
2023-08-24T09:03:33.663Z,56.58
2023-08-24T09:06:00.481Z,56.57
2023-08-24T09:08:29.060Z,55.87
2023-08-24T09:10:56.190Z,54.85
2023-08-24T09:13:22.861Z,54.43
2023-08-24T09:15:52.274Z,54.37
2023-08-24T09:18:18.830Z,53.72
2023-08-24T09:20:45.487Z,53.55
2023-08-24T09:23:20.071Z,53.33
2023-08-24T09:25:48.764Z,53.30
2023-08-24T09:28:15.400Z,53.51
2023-08-24T09:30:46.468Z,53.36
2023-08-24T09:33:14.353Z,51.95
2023-08-24T09:35:40.940Z,50.65
2023-08-24T09:38:19.804Z,50.68
2023-08-24T09:40:53.341Z,51.16
2023-08-24T09:43:20.288Z,51.82
2023-08-24T09:45:57.379Z,52.11
2023-08-24T09:48:27.711Z,50.83
2023-08-24T09:50:57.885Z,50.46
2023-08-24T09:53:25.051Z,50.57
2023-08-24T09:56:02.473Z,50.34
2023-08-24T09:58:29.637Z,50.69
2023-08-24T10:00:57.122Z,50.20
2023-08-24T10:03:27.633Z,49.00
2023-08-24T10:05:58.896Z,48.88
2023-08-24T10:08:30.528Z,49.01
2023-08-24T10:10:59.785Z,48.93
2023-08-24T10:13:35.386Z,48.27
2023-08-24T10:16:02.301Z,48.69
2023-08-24T10:18:29.062Z,49.21
2023-08-24T10:20:57.375Z,49.63
2023-08-24T10:23:24.225Z,49.26
2023-08-24T10:25:52.456Z,48.98
2023-08-24T10:28:21.470Z,49.00
2023-08-24T10:30:48.410Z,48.45
2023-08-24T10:33:16.232Z,47.69
2023-08-24T10:35:43.701Z,47.99
2023-08-24T10:38:23.518Z,46.77
2023-08-24T10:40:52.238Z,46.22
2023-08-24T10:43:18.881Z,45.39
2023-08-24T10:45:59.614Z,45.16
2023-08-24T10:48:28.029Z,46.08
2023-08-24T10:51:08.580Z,45.95
2023-08-24T10:53:50.105Z,45.92
2023-08-24T10:56:17.721Z,45.57
2023-08-24T10:58:47.709Z,43.12
2023-08-24T11:01:20.204Z,43.24
2023-08-24T11:03:50.260Z,42.92
2023-08-24T11:06:21.582Z,44.03
2023-08-24T11:08:48.804Z,44.96
2023-08-24T11:11:28.259Z,45.18
2023-08-24T11:14:10.775Z,45.58
2023-08-24T11:16:41.252Z,45.34
2023-08-24T11:19:08.137Z,44.93
2023-08-24T11:21:35.458Z,44.46
2023-08-24T11:24:03.572Z,43.36
2023-08-24T11:26:33.291Z,43.76
2023-08-24T11:29:01.596Z,44.23
2023-08-24T11:31:29.000Z,44.25
2023-08-24T11:33:58.920Z,44.29
2023-08-24T11:36:25.509Z,43.89
2023-08-24T11:38:57.653Z,42.87
2023-08-24T11:41:24.381Z,43.78
2023-08-24T11:43:52.286Z,44.34
2023-08-24T11:46:19.865Z,44.60
2023-08-24T11:48:47.136Z,44.13
2023-08-24T11:51:15.027Z,43.85
2023-08-24T11:53:43.952Z,43.54
2023-08-24T11:56:12.265Z,44.24
2023-08-24T11:58:42.546Z,43.80
2023-08-24T12:01:09.636Z,43.06
2023-08-24T12:03:37.118Z,43.16
2023-08-24T12:06:10.934Z,43.27
2023-08-24T12:08:41.808Z,43.13
2023-08-24T12:11:28.061Z,42.96
2023-08-24T12:13:56.382Z,42.86
2023-08-24T12:16:28.456Z,42.95
2023-08-24T12:19:00.905Z,42.49
2023-08-24T12:21:27.749Z,42.12
2023-08-24T12:24:01.785Z,43.17
2023-08-24T12:26:29.067Z,42.96
2023-08-24T12:29:00.756Z,42.92
2023-08-24T12:31:28.671Z,43.02
2023-08-24T12:34:05.265Z,43.02
2023-08-24T12:36:37.448Z,42.35
2023-08-24T12:39:08.873Z,42.20
2023-08-24T12:41:35.636Z,42.49
2023-08-24T12:44:06.403Z,42.30
2023-08-24T12:46:34.347Z,42.32
2023-08-24T12:49:00.958Z,41.51
2023-08-24T12:54:10.407Z,41.98
2023-08-24T12:56:39.353Z,41.96
2023-08-24T12:59:05.971Z,41.99
2023-08-24T13:01:32.580Z,42.02
2023-08-24T13:03:59.330Z,42.23
2023-08-24T13:06:25.954Z,42.18
2023-08-24T13:08:55.272Z,42.54
2023-08-24T13:11:22.914Z,42.64
2023-08-24T13:13:50.189Z,42.49
2023-08-24T13:16:17.138Z,42.81
2023-08-24T13:18:44.290Z,41.81
2023-08-24T13:21:10.960Z,42.01
2023-08-24T13:23:37.504Z,42.26
2023-08-24T13:26:04.273Z,42.12
2023-08-24T13:28:31.061Z,42.20
2023-08-24T13:30:57.790Z,41.90
2023-08-24T13:33:24.675Z,41.10
2023-08-24T13:35:51.265Z,41.89
2023-08-24T13:38:17.833Z,42.27
2023-08-24T13:40:47.192Z,42.28
2023-08-24T13:43:14.777Z,42.40
2023-08-24T13:45:41.423Z,42.59
2023-08-24T13:48:09.479Z,42.75
2023-08-24T13:50:36.102Z,42.13
2023-08-24T13:53:02.706Z,41.90
2023-08-24T13:55:30.041Z,41.51
2023-08-24T13:57:56.925Z,41.49
2023-08-24T14:00:26.916Z,42.00
2023-08-24T14:02:53.906Z,42.41
2023-08-24T14:05:20.805Z,42.22
2023-08-24T14:07:47.409Z,42.67
2023-08-24T14:10:14.011Z,42.80
2023-08-24T14:12:40.605Z,43.00
2023-08-24T14:15:07.977Z,43.35
2023-08-24T14:17:34.864Z,43.53
2023-08-24T14:20:01.704Z,43.93
2023-08-24T14:22:28.271Z,44.33
2023-08-24T14:24:54.931Z,44.30
2023-08-24T14:27:21.511Z,43.94
2023-08-24T14:29:48.145Z,43.43
2023-08-24T14:32:14.749Z,42.95
2023-08-24T14:34:41.363Z,43.13
2023-08-24T14:37:07.966Z,43.42
2023-08-24T14:39:34.574Z,42.61
2023-08-24T14:42:01.257Z,43.09
2023-08-24T14:44:27.955Z,42.29
2023-08-24T14:46:54.782Z,42.82
2023-08-24T14:49:21.404Z,42.84
2023-08-24T14:51:48.293Z,42.44
2023-08-24T14:56:56.652Z,42.77
2023-08-24T14:59:23.355Z,42.85
2023-08-24T15:01:54.399Z,42.74
2023-08-24T15:04:21.462Z,43.31
2023-08-24T15:06:48.354Z,43.31
2023-08-24T15:09:17.672Z,43.39
2023-08-24T15:11:45.187Z,43.44
2023-08-24T15:14:11.759Z,43.94
2023-08-24T15:16:38.423Z,44.83
2023-08-24T15:19:05.153Z,45.60
2023-08-24T15:21:31.990Z,46.94
2023-08-24T15:23:58.897Z,47.33
2023-08-24T15:26:25.503Z,47.66
2023-08-24T15:29:19.697Z,48.29
2023-08-24T15:31:46.586Z,48.96
2023-08-24T15:34:13.585Z,50.13
2023-08-24T15:36:41.132Z,51.55
2023-08-24T15:39:07.842Z,52.14
2023-08-24T15:41:34.484Z,52.59
2023-08-24T15:44:01.163Z,53.13
2023-08-24T15:46:27.812Z,53.87
2023-08-24T15:48:57.269Z,54.75
2023-08-24T15:51:24.413Z,55.18
2023-08-24T15:53:51.442Z,55.14
2023-08-24T15:56:18.053Z,56.26
2023-08-24T15:58:45.313Z,56.72
2023-08-24T16:01:11.991Z,57.14
2023-08-24T16:03:38.627Z,57.53
2023-08-24T16:06:06.514Z,58.12
2023-08-24T16:08:33.496Z,58.44
2023-08-24T16:11:00.259Z,58.12
2023-08-24T16:13:27.556Z,57.80
2023-08-24T16:15:54.189Z,57.84
2023-08-24T16:18:25.543Z,57.91
2023-08-24T16:20:52.807Z,58.66
2023-08-24T16:23:19.932Z,59.26
2023-08-24T16:25:47.037Z,59.81
2023-08-24T16:28:14.485Z,59.72
2023-08-24T16:30:41.193Z,59.30
2023-08-24T16:33:07.880Z,59.70
2023-08-24T16:35:34.495Z,59.73
2023-08-24T16:38:01.118Z,59.95
2023-08-24T16:40:27.677Z,60.69
2023-08-24T16:42:54.354Z,61.50
2023-08-24T16:45:23.104Z,62.00
2023-08-24T16:47:50.455Z,62.38
2023-08-24T16:50:17.523Z,62.61
2023-08-24T16:52:44.624Z,62.89
2023-08-24T16:55:11.828Z,62.93
2023-08-24T16:57:38.433Z,63.15
2023-08-24T17:00:06.201Z,63.29
2023-08-24T17:02:32.959Z,63.46
2023-08-24T17:04:59.642Z,63.34
2023-08-24T17:07:26.333Z,63.42
2023-08-24T17:09:52.945Z,63.66
2023-08-24T17:12:20.054Z,63.64
2023-08-24T17:14:46.621Z,63.81
2023-08-24T17:17:13.301Z,63.84
2023-08-24T17:19:40.031Z,64.03
2023-08-24T17:22:06.680Z,64.11
2023-08-24T17:24:33.394Z,63.95
2023-08-24T17:27:00.145Z,64.12
2023-08-24T17:29:26.735Z,64.24
2023-08-24T17:31:53.312Z,64.53
2023-08-24T17:34:19.900Z,64.62
2023-08-24T17:36:46.552Z,64.91
2023-08-24T17:39:13.198Z,65.29
2023-08-24T17:41:42.585Z,65.55
2023-08-24T17:44:09.827Z,65.62
2023-08-24T17:46:36.491Z,65.89
2023-08-24T17:49:03.149Z,66.24
2023-08-24T17:51:30.440Z,66.42
2023-08-24T17:53:58.172Z,66.65
2023-08-24T17:56:24.818Z,66.92
2023-08-24T17:58:51.559Z,67.06
2023-08-24T18:01:18.168Z,67.11
2023-08-24T18:03:44.857Z,67.34
2023-08-24T18:06:11.534Z,67.54
2023-08-24T18:08:50.872Z,67.68
2023-08-24T18:11:18.860Z,67.92
2023-08-24T18:13:48.661Z,68.14
2023-08-24T18:16:15.817Z,68.27
2023-08-24T18:18:44.398Z,68.42
2023-08-24T18:21:11.877Z,68.94
2023-08-24T18:23:38.510Z,69.11
2023-08-24T18:26:05.679Z,69.23
2023-08-24T18:28:32.351Z,69.44
2023-08-24T18:30:59.953Z,69.45
2023-08-24T18:33:26.799Z,69.63
2023-08-24T18:35:54.084Z,69.83
2023-08-24T18:41:02.178Z,70.33
2023-08-24T18:43:30.218Z,70.34
2023-08-24T18:46:00.866Z,70.53
2023-08-24T18:48:27.719Z,70.87
2023-08-24T18:50:54.476Z,70.92
2023-08-24T18:53:21.179Z,70.94
2023-08-24T18:55:48.261Z,71.09
2023-08-24T18:58:14.950Z,71.69
2023-08-24T19:00:41.591Z,71.66
2023-08-24T19:03:08.181Z,71.82
2023-08-24T19:05:34.922Z,72.09
2023-08-24T19:08:01.572Z,72.26
2023-08-24T19:10:28.173Z,72.06
2023-08-24T19:12:55.200Z,72.70
2023-08-24T19:15:22.428Z,72.65
2023-08-24T19:17:49.165Z,72.69
2023-08-24T19:20:25.950Z,73.14
2023-08-24T19:22:54.131Z,72.83
2023-08-24T19:25:21.440Z,73.18
2023-08-24T19:27:48.064Z,73.24
2023-08-24T19:30:14.743Z,73.39
2023-08-24T19:32:41.403Z,73.52
2023-08-24T19:35:08.242Z,73.74
2023-08-24T19:37:34.844Z,73.83
2023-08-24T19:40:01.612Z,73.71
2023-08-24T19:42:30.901Z,73.94
2023-08-24T19:44:57.706Z,73.85
2023-08-24T19:47:24.597Z,73.92
2023-08-24T19:49:51.383Z,74.20
2023-08-24T19:52:18.046Z,74.25
2023-08-24T19:54:45.076Z,74.69
2023-08-24T19:57:15.222Z,75.18
2023-08-24T19:59:42.170Z,74.86
2023-08-24T20:02:09.029Z,75.12
2023-08-24T20:04:35.691Z,75.06
2023-08-24T20:07:04.571Z,74.96
2023-08-24T20:09:31.392Z,75.31
2023-08-24T20:11:58.524Z,75.34
2023-08-24T20:14:25.355Z,75.37
2023-08-24T20:16:52.743Z,75.41
2023-08-24T20:19:20.838Z,75.69
2023-08-24T20:21:47.810Z,75.72
2023-08-24T20:24:14.402Z,75.81
2023-08-24T20:26:40.993Z,75.81
2023-08-24T20:29:07.930Z,75.84
2023-08-24T20:31:34.614Z,75.97
2023-08-24T20:34:01.732Z,75.96
2023-08-24T20:36:28.478Z,76.23
2023-08-24T20:38:55.051Z,76.64
2023-08-24T20:41:21.653Z,76.68
2023-08-24T20:43:48.686Z,76.83
2023-08-24T20:46:15.339Z,76.75
2023-08-24T20:48:41.931Z,76.82
2023-08-24T20:51:08.793Z,76.91
2023-08-24T20:53:35.633Z,77.15
2023-08-24T20:56:02.542Z,77.11
2023-08-24T20:58:29.581Z,77.21
2023-08-24T21:00:57.386Z,76.99
2023-08-24T21:03:24.378Z,77.33
2023-08-24T21:05:57.936Z,77.49
2023-08-24T21:08:24.484Z,77.66
2023-08-24T21:10:51.669Z,77.79
2023-08-24T21:13:18.368Z,77.96
2023-08-24T21:15:47.893Z,77.94
2023-08-24T21:18:14.788Z,77.95
2023-08-24T21:20:41.941Z,77.94
2023-08-24T21:23:08.505Z,78.07
2023-08-24T21:25:35.381Z,78.15
2023-08-24T21:28:02.229Z,78.47
2023-08-24T21:30:28.806Z,78.39
2023-08-24T21:32:55.773Z,78.44
2023-08-24T21:35:22.624Z,78.68
2023-08-24T21:37:49.149Z,78.85
2023-08-24T21:40:16.040Z,78.75
2023-08-24T21:42:43.491Z,78.93
2023-08-24T21:45:10.252Z,79.12
2023-08-24T21:47:37.120Z,79.14
2023-08-24T21:50:05.231Z,79.38
2023-08-24T21:52:31.802Z,79.16
2023-08-24T21:54:58.417Z,79.49
2023-08-24T21:57:25.363Z,79.49
2023-08-24T21:59:51.927Z,79.56
2023-08-24T22:02:18.532Z,79.62
2023-08-24T22:04:46.342Z,79.56
2023-08-24T22:07:13.142Z,79.71
2023-08-24T22:09:41.581Z,79.82
2023-08-24T22:12:08.591Z,79.86
2023-08-24T22:14:35.156Z,79.88
2023-08-24T22:17:01.724Z,79.67
2023-08-24T22:19:28.378Z,80.03
2023-08-24T22:21:55.181Z,80.03
2023-08-24T22:24:21.999Z,79.86
2023-08-24T22:26:48.826Z,80.14
2023-08-24T22:29:15.392Z,80.16
2023-08-24T22:31:42.633Z,80.45
2023-08-24T22:34:09.375Z,80.42
2023-08-24T22:36:36.042Z,80.71
2023-08-24T22:39:02.744Z,80.74
2023-08-24T22:41:29.731Z,80.86
2023-08-24T22:43:56.320Z,80.97
2023-08-24T22:46:23.750Z,80.63
2023-08-24T22:48:51.102Z,80.79
2023-08-24T22:51:17.905Z,80.77
2023-08-24T22:53:44.583Z,80.95
2023-08-24T22:56:13.485Z,80.95
2023-08-24T22:58:40.186Z,81.07
2023-08-24T23:01:16.864Z,80.89
2023-08-24T23:03:43.927Z,80.94
2023-08-24T23:06:17.693Z,80.98
2023-08-24T23:08:44.249Z,81.22
2023-08-24T23:11:10.843Z,81.27
2023-08-24T23:13:37.592Z,81.39
2023-08-24T23:16:07.471Z,81.42
2023-08-24T23:18:34.208Z,81.38
2023-08-24T23:21:01.797Z,81.52
2023-08-24T23:23:28.656Z,81.72
2023-08-24T23:25:55.298Z,81.83
2023-08-24T23:28:21.932Z,81.70
2023-08-24T23:30:48.603Z,81.85
2023-08-24T23:33:15.263Z,82.13
2023-08-24T23:35:42.311Z,82.23
2023-08-24T23:38:09.416Z,82.21
2023-08-24T23:40:37.409Z,82.53
2023-08-24T23:43:04.776Z,82.48
2023-08-24T23:45:32.673Z,82.09
2023-08-24T23:47:59.436Z,82.15
2023-08-24T23:50:26.548Z,82.38
2023-08-24T23:52:53.160Z,82.35
2023-08-24T23:55:20.007Z,82.39
2023-08-24T23:57:46.665Z,82.23
